Palma, Spain
Current Conditions -  °F | °C
As of 6:30 PM on Wednesday 26 Nov 2014 (Local Time) from LEPA Reporting Station
Few Clouds Few Clouds  
Wind Chill: 64°   Ceiling: Unl
Heat Index: 64°   Visibility: 6mi
Dew Point: 59°   Wind: 6mph
Humidity: 83%   Direction: 200°SSW
Pressure: 29.85"   Gusts: NA
Location:  39.57°N, 2.65°E
Report Text: LEPA 261730Z 20005KT 170V230 9999 FEW016 18/15 Q1011 NOSIG
Loading
Personal Weather Stations






























Interactive Weather Map New forecast layout! Learn more

10-Day Weather Forecast

Advertisements
Track Severe Weather on mobile